sensor_id;sensor_type;location;lat;lon;timestamp;P1;durP1;ratioP1;P2;durP2;ratioP2
14326;SDS011;7247;53.330;-1.180;2023-04-06T00:02:21;25.37;;;17.57;;
14326;SDS011;7247;53.330;-1.180;2023-04-06T00:04:47;23.90;;;16.77;;
14326;SDS011;7247;53.330;-1.180;2023-04-06T00:07:13;23.33;;;17.13;;
14326;SDS011;7247;53.330;-1.180;2023-04-06T00:09:41;25.30;;;17.47;;
14326;SDS011;7247;53.330;-1.180;2023-04-06T00:12:08;25.73;;;16.70;;
14326;SDS011;7247;53.330;-1.180;2023-04-06T00:14:35;24.47;;;17.40;;
14326;SDS011;7247;53.330;-1.180;2023-04-06T00:17:01;22.10;;;16.97;;
14326;SDS011;7247;53.330;-1.180;2023-04-06T00:19:27;23.00;;;16.80;;
14326;SDS011;7247;53.330;-1.180;2023-04-06T00:21:54;23.23;;;16.17;;
14326;SDS011;7247;53.330;-1.180;2023-04-06T00:24:20;22.47;;;15.97;;
14326;SDS011;7247;53.330;-1.180;2023-04-06T00:26:48;24.20;;;17.00;;
14326;SDS011;7247;53.330;-1.180;2023-04-06T00:29:15;21.83;;;16.33;;
14326;SDS011;7247;53.330;-1.180;2023-04-06T00:31:41;22.77;;;15.93;;
14326;SDS011;7247;53.330;-1.180;2023-04-06T00:34:08;23.83;;;17.17;;
14326;SDS011;7247;53.330;-1.180;2023-04-06T00:36:34;24.13;;;17.03;;
14326;SDS011;7247;53.330;-1.180;2023-04-06T00:39:00;22.50;;;16.43;;
14326;SDS011;7247;53.330;-1.180;2023-04-06T00:41:27;25.87;;;18.00;;
14326;SDS011;7247;53.330;-1.180;2023-04-06T00:43:55;24.10;;;17.23;;
14326;SDS011;7247;53.330;-1.180;2023-04-06T00:46:21;24.07;;;16.67;;
14326;SDS011;7247;53.330;-1.180;2023-04-06T00:48:48;24.33;;;17.10;;
14326;SDS011;7247;53.330;-1.180;2023-04-06T00:51:14;25.83;;;18.17;;
14326;SDS011;7247;53.330;-1.180;2023-04-06T00:53:40;25.17;;;17.10;;
14326;SDS011;7247;53.330;-1.180;2023-04-06T00:56:07;23.13;;;16.43;;
14326;SDS011;7247;53.330;-1.180;2023-04-06T00:58:34;23.30;;;16.20;;
14326;SDS011;7247;53.330;-1.180;2023-04-06T01:01:04;23.93;;;17.27;;
14326;SDS011;7247;53.330;-1.180;2023-04-06T01:03:31;23.07;;;16.77;;
14326;SDS011;7247;53.330;-1.180;2023-04-06T01:05:57;24.63;;;16.97;;
14326;SDS011;7247;53.330;-1.180;2023-04-06T01:08:24;22.80;;;16.23;;
14326;SDS011;7247;53.330;-1.180;2023-04-06T01:10:50;25.00;;;17.00;;
14326;SDS011;7247;53.330;-1.180;2023-04-06T01:13:17;24.53;;;16.97;;
14326;SDS011;7247;53.330;-1.180;2023-04-06T01:15:43;23.03;;;16.70;;
14326;SDS011;7247;53.330;-1.180;2023-04-06T01:18:11;21.43;;;15.80;;
14326;SDS011;7247;53.330;-1.180;2023-04-06T01:20:37;24.47;;;16.20;;
14326;SDS011;7247;53.330;-1.180;2023-04-06T01:23:05;25.07;;;16.67;;
14326;SDS011;7247;53.330;-1.180;2023-04-06T01:25:32;24.77;;;15.83;;
14326;SDS011;7247;53.330;-1.180;2023-04-06T01:27:58;24.00;;;17.10;;
14326;SDS011;7247;53.330;-1.180;2023-04-06T01:30:24;24.00;;;17.17;;
14326;SDS011;7247;53.330;-1.180;2023-04-06T01:32:51;25.13;;;17.07;;
14326;SDS011;7247;53.330;-1.180;2023-04-06T01:35:18;22.60;;;15.60;;
14326;SDS011;7247;53.330;-1.180;2023-04-06T01:37:44;23.70;;;16.20;;
14326;SDS011;7247;53.330;-1.180;2023-04-06T01:40:12;24.70;;;16.60;;
14326;SDS011;7247;53.330;-1.180;2023-04-06T01:42:38;24.50;;;16.30;;
14326;SDS011;7247;53.330;-1.180;2023-04-06T01:45:05;24.17;;;17.40;;
14326;SDS011;7247;53.330;-1.180;2023-04-06T01:47:32;24.87;;;16.77;;
14326;SDS011;7247;53.330;-1.180;2023-04-06T01:49:58;24.03;;;15.97;;
14326;SDS011;7247;53.330;-1.180;2023-04-06T01:52:25;24.17;;;16.73;;
14326;SDS011;7247;53.330;-1.180;2023-04-06T01:54:51;23.17;;;16.50;;
14326;SDS011;7247;53.330;-1.180;2023-04-06T01:57:19;25.10;;;17.93;;
14326;SDS011;7247;53.330;-1.180;2023-04-06T01:59:46;26.30;;;16.43;;
14326;SDS011;7247;53.330;-1.180;2023-04-06T02:02:12;28.23;;;17.50;;
14326;SDS011;7247;53.330;-1.180;2023-04-06T02:04:39;26.03;;;17.73;;
14326;SDS011;7247;53.330;-1.180;2023-04-06T02:07:05;27.43;;;16.57;;
14326;SDS011;7247;53.330;-1.180;2023-04-06T02:09:31;27.53;;;17.63;;
14326;SDS011;7247;53.330;-1.180;2023-04-06T02:11:58;26.47;;;18.83;;
14326;SDS011;7247;53.330;-1.180;2023-04-06T02:14:26;27.57;;;17.97;;
14326;SDS011;7247;53.330;-1.180;2023-04-06T02:16:53;25.93;;;17.53;;
14326;SDS011;7247;53.330;-1.180;2023-04-06T02:19:20;25.80;;;16.97;;
14326;SDS011;7247;53.330;-1.180;2023-04-06T02:21:47;27.27;;;18.07;;
14326;SDS011;7247;53.330;-1.180;2023-04-06T02:24:13;30.37;;;17.97;;
14326;SDS011;7247;53.330;-1.180;2023-04-06T02:26:40;26.00;;;18.67;;
14326;SDS011;7247;53.330;-1.180;2023-04-06T02:29:06;28.13;;;18.10;;
14326;SDS011;7247;53.330;-1.180;2023-04-06T02:31:34;25.50;;;17.87;;
14326;SDS011;7247;53.330;-1.180;2023-04-06T02:34:00;27.43;;;18.27;;
14326;SDS011;7247;53.330;-1.180;2023-04-06T02:36:27;29.37;;;19.50;;
14326;SDS011;7247;53.330;-1.180;2023-04-06T02:38:53;27.43;;;18.83;;
14326;SDS011;7247;53.330;-1.180;2023-04-06T02:41:20;29.27;;;19.13;;
14326;SDS011;7247;53.330;-1.180;2023-04-06T02:43:46;26.13;;;17.57;;
14326;SDS011;7247;53.330;-1.180;2023-04-06T02:46:12;24.83;;;18.03;;
14326;SDS011;7247;53.330;-1.180;2023-04-06T02:48:40;25.00;;;17.50;;
14326;SDS011;7247;53.330;-1.180;2023-04-06T02:51:07;25.57;;;17.50;;
14326;SDS011;7247;53.330;-1.180;2023-04-06T02:53:33;26.37;;;17.60;;
14326;SDS011;7247;53.330;-1.180;2023-04-06T02:56:00;26.27;;;18.03;;
14326;SDS011;7247;53.330;-1.180;2023-04-06T02:58:26;25.10;;;17.80;;
14326;SDS011;7247;53.330;-1.180;2023-04-06T03:00:52;26.00;;;17.83;;
14326;SDS011;7247;53.330;-1.180;2023-04-06T03:03:19;25.40;;;17.80;;
14326;SDS011;7247;53.330;-1.180;2023-04-06T03:05:46;26.83;;;18.60;;
14326;SDS011;7247;53.330;-1.180;2023-04-06T03:08:13;27.33;;;17.87;;
14326;SDS011;7247;53.330;-1.180;2023-04-06T03:10:39;25.23;;;18.40;;
14326;SDS011;7247;53.330;-1.180;2023-04-06T03:13:06;26.03;;;18.10;;
14326;SDS011;7247;53.330;-1.180;2023-04-06T03:15:32;23.43;;;17.87;;
14326;SDS011;7247;53.330;-1.180;2023-04-06T03:17:59;25.93;;;18.13;;
14326;SDS011;7247;53.330;-1.180;2023-04-06T03:20:25;23.00;;;16.73;;
14326;SDS011;7247;53.330;-1.180;2023-04-06T03:22:53;26.77;;;17.60;;
14326;SDS011;7247;53.330;-1.180;2023-04-06T03:25:19;22.23;;;17.20;;
14326;SDS011;7247;53.330;-1.180;2023-04-06T03:27:46;22.43;;;17.07;;
14326;SDS011;7247;53.330;-1.180;2023-04-06T03:30:12;25.80;;;17.87;;
14326;SDS011;7247;53.330;-1.180;2023-04-06T03:32:39;21.20;;;15.30;;
14326;SDS011;7247;53.330;-1.180;2023-04-06T03:35:05;18.77;;;13.77;;
14326;SDS011;7247;53.330;-1.180;2023-04-06T03:37:32;15.90;;;11.53;;
14326;SDS011;7247;53.330;-1.180;2023-04-06T03:39:59;14.47;;;10.83;;
14326;SDS011;7247;53.330;-1.180;2023-04-06T03:42:26;12.40;;;9.77;;
14326;SDS011;7247;53.330;-1.180;2023-04-06T03:44:52;14.63;;;10.43;;
14326;SDS011;7247;53.330;-1.180;2023-04-06T03:47:19;11.57;;;9.30;;
14326;SDS011;7247;53.330;-1.180;2023-04-06T03:49:45;10.80;;;8.37;;
14326;SDS011;7247;53.330;-1.180;2023-04-06T03:52:12;10.53;;;8.00;;
14326;SDS011;7247;53.330;-1.180;2023-04-06T03:54:38;10.43;;;7.90;;
14326;SDS011;7247;53.330;-1.180;2023-04-06T03:57:06;10.30;;;7.87;;
14326;SDS011;7247;53.330;-1.180;2023-04-06T03:59:33;8.77;;;7.33;;
14326;SDS011;7247;53.330;-1.180;2023-04-06T04:01:59;10.00;;;8.20;;
14326;SDS011;7247;53.330;-1.180;2023-04-06T04:04:26;10.87;;;8.10;;
14326;SDS011;7247;53.330;-1.180;2023-04-06T04:06:52;9.77;;;7.77;;
14326;SDS011;7247;53.330;-1.180;2023-04-06T04:09:18;11.70;;;7.80;;
14326;SDS011;7247;53.330;-1.180;2023-04-06T04:11:45;10.77;;;7.50;;
14326;SDS011;7247;53.330;-1.180;2023-04-06T04:14:13;11.00;;;8.03;;
14326;SDS011;7247;53.330;-1.180;2023-04-06T04:16:39;10.03;;;8.30;;
14326;SDS011;7247;53.330;-1.180;2023-04-06T04:19:06;10.13;;;8.03;;
14326;SDS011;7247;53.330;-1.180;2023-04-06T04:21:33;9.27;;;8.27;;
14326;SDS011;7247;53.330;-1.180;2023-04-06T04:23:59;9.77;;;7.60;;
14326;SDS011;7247;53.330;-1.180;2023-04-06T04:26:26;9.40;;;8.10;;
14326;SDS011;7247;53.330;-1.180;2023-04-06T04:28:52;10.43;;;8.40;;
14326;SDS011;7247;53.330;-1.180;2023-04-06T04:31:20;10.83;;;8.60;;
14326;SDS011;7247;53.330;-1.180;2023-04-06T04:33:47;10.47;;;8.17;;
14326;SDS011;7247;53.330;-1.180;2023-04-06T04:36:14;10.20;;;8.20;;
14326;SDS011;7247;53.330;-1.180;2023-04-06T04:38:40;10.03;;;7.87;;
14326;SDS011;7247;53.330;-1.180;2023-04-06T04:41:06;10.10;;;7.53;;
14326;SDS011;7247;53.330;-1.180;2023-04-06T04:43:33;10.27;;;8.20;;
14326;SDS011;7247;53.330;-1.180;2023-04-06T04:45:59;10.93;;;7.53;;
14326;SDS011;7247;53.330;-1.180;2023-04-06T04:48:27;9.70;;;7.80;;
14326;SDS011;7247;53.330;-1.180;2023-04-06T04:50:53;10.60;;;7.77;;
14326;SDS011;7247;53.330;-1.180;2023-04-06T04:53:20;10.53;;;8.20;;
14326;SDS011;7247;53.330;-1.180;2023-04-06T04:55:47;11.50;;;8.27;;
14326;SDS011;7247;53.330;-1.180;2023-04-06T04:58:13;12.47;;;8.70;;
14326;SDS011;7247;53.330;-1.180;2023-04-06T05:00:41;10.97;;;8.30;;
14326;SDS011;7247;53.330;-1.180;2023-04-06T05:03:08;10.03;;;7.60;;
14326;SDS011;7247;53.330;-1.180;2023-04-06T05:05:36;11.53;;;8.33;;
14326;SDS011;7247;53.330;-1.180;2023-04-06T05:08:02;12.13;;;8.60;;
14326;SDS011;7247;53.330;-1.180;2023-04-06T05:10:29;12.50;;;8.33;;
14326;SDS011;7247;53.330;-1.180;2023-04-06T05:12:55;13.03;;;8.47;;
14326;SDS011;7247;53.330;-1.180;2023-04-06T05:15:21;12.30;;;8.63;;
14326;SDS011;7247;53.330;-1.180;2023-04-06T05:17:48;11.63;;;8.73;;
14326;SDS011;7247;53.330;-1.180;2023-04-06T05:20:14;13.03;;;8.60;;
14326;SDS011;7247;53.330;-1.180;2023-04-06T05:22:42;13.17;;;8.70;;
14326;SDS011;7247;53.330;-1.180;2023-04-06T05:25:08;13.30;;;9.17;;
14326;SDS011;7247;53.330;-1.180;2023-04-06T05:27:35;12.07;;;8.47;;
14326;SDS011;7247;53.330;-1.180;2023-04-06T05:30:01;12.90;;;9.13;;
14326;SDS011;7247;53.330;-1.180;2023-04-06T05:32:28;13.83;;;9.27;;
14326;SDS011;7247;53.330;-1.180;2023-04-06T05:34:55;14.60;;;10.20;;
14326;SDS011;7247;53.330;-1.180;2023-04-06T05:37:21;10.87;;;8.53;;
14326;SDS011;7247;53.330;-1.180;2023-04-06T05:39:49;14.10;;;9.53;;
14326;SDS011;7247;53.330;-1.180;2023-04-06T05:42:16;13.83;;;8.97;;
14326;SDS011;7247;53.330;-1.180;2023-04-06T05:44:42;15.70;;;10.07;;
14326;SDS011;7247;53.330;-1.180;2023-04-06T05:47:08;13.70;;;9.40;;
14326;SDS011;7247;53.330;-1.180;2023-04-06T05:49:35;16.83;;;10.33;;
14326;SDS011;7247;53.330;-1.180;2023-04-06T05:52:01;19.00;;;10.13;;
14326;SDS011;7247;53.330;-1.180;2023-04-06T05:54:29;16.90;;;10.57;;
14326;SDS011;7247;53.330;-1.180;2023-04-06T05:56:56;15.33;;;10.33;;
14326;SDS011;7247;53.330;-1.180;2023-04-06T05:59:23;17.20;;;11.03;;
14326;SDS011;7247;53.330;-1.180;2023-04-06T06:01:49;18.63;;;11.20;;
14326;SDS011;7247;53.330;-1.180;2023-04-06T06:04:16;16.33;;;10.43;;
14326;SDS011;7247;53.330;-1.180;2023-04-06T06:06:42;14.53;;;9.63;;
14326;SDS011;7247;53.330;-1.180;2023-04-06T06:09:09;14.70;;;10.37;;
14326;SDS011;7247;53.330;-1.180;2023-04-06T06:11:35;16.30;;;9.83;;
14326;SDS011;7247;53.330;-1.180;2023-04-06T06:14:03;15.77;;;9.53;;
14326;SDS011;7247;53.330;-1.180;2023-04-06T06:16:30;12.70;;;8.83;;
14326;SDS011;7247;53.330;-1.180;2023-04-06T06:18:56;12.27;;;8.37;;
14326;SDS011;7247;53.330;-1.180;2023-04-06T06:21:23;13.03;;;9.57;;
14326;SDS011;7247;53.330;-1.180;2023-04-06T06:23:49;13.20;;;9.30;;
14326;SDS011;7247;53.330;-1.180;2023-04-06T06:26:16;13.40;;;8.80;;
14326;SDS011;7247;53.330;-1.180;2023-04-06T06:28:42;12.47;;;9.63;;
14326;SDS011;7247;53.330;-1.180;2023-04-06T06:31:10;14.53;;;9.60;;
14326;SDS011;7247;53.330;-1.180;2023-04-06T06:33:37;13.43;;;9.40;;
14326;SDS011;7247;53.330;-1.180;2023-04-06T06:36:03;13.37;;;9.07;;
14326;SDS011;7247;53.330;-1.180;2023-04-06T06:38:30;17.67;;;10.67;;
14326;SDS011;7247;53.330;-1.180;2023-04-06T06:40:56;17.90;;;11.10;;
14326;SDS011;7247;53.330;-1.180;2023-04-06T06:43:23;17.77;;;11.50;;
14326;SDS011;7247;53.330;-1.180;2023-04-06T06:45:49;18.33;;;12.13;;
14326;SDS011;7247;53.330;-1.180;2023-04-06T06:48:17;23.63;;;12.57;;
14326;SDS011;7247;53.330;-1.180;2023-04-06T06:50:43;23.70;;;12.57;;
14326;SDS011;7247;53.330;-1.180;2023-04-06T06:53:10;24.87;;;12.73;;
14326;SDS011;7247;53.330;-1.180;2023-04-06T06:55:36;24.07;;;14.20;;
14326;SDS011;7247;53.330;-1.180;2023-04-06T06:58:03;20.37;;;13.37;;
14326;SDS011;7247;53.330;-1.180;2023-04-06T07:00:29;18.73;;;13.10;;
14326;SDS011;7247;53.330;-1.180;2023-04-06T07:02:55;17.50;;;12.20;;
14326;SDS011;7247;53.330;-1.180;2023-04-06T07:05:23;17.40;;;13.10;;
14326;SDS011;7247;53.330;-1.180;2023-04-06T07:07:50;15.57;;;11.60;;
14326;SDS011;7247;53.330;-1.180;2023-04-06T07:10:16;20.13;;;13.13;;
14326;SDS011;7247;53.330;-1.180;2023-04-06T07:12:43;18.57;;;13.10;;
14326;SDS011;7247;53.330;-1.180;2023-04-06T07:15:09;18.07;;;13.40;;
14326;SDS011;7247;53.330;-1.180;2023-04-06T07:17:36;20.17;;;14.50;;
14326;SDS011;7247;53.330;-1.180;2023-04-06T07:20:02;20.50;;;13.30;;
14326;SDS011;7247;53.330;-1.180;2023-04-06T07:22:30;15.03;;;10.87;;
14326;SDS011;7247;53.330;-1.180;2023-04-06T07:24:56;14.93;;;10.90;;
14326;SDS011;7247;53.330;-1.180;2023-04-06T07:27:23;11.37;;;8.30;;
14326;SDS011;7247;53.330;-1.180;2023-04-06T07:29:49;9.80;;;6.53;;
14326;SDS011;7247;53.330;-1.180;2023-04-06T07:32:16;10.40;;;6.20;;
14326;SDS011;7247;53.330;-1.180;2023-04-06T07:34:42;7.80;;;5.33;;
14326;SDS011;7247;53.330;-1.180;2023-04-06T07:37:10;7.27;;;4.50;;
14326;SDS011;7247;53.330;-1.180;2023-04-06T07:39:37;5.83;;;4.40;;
14326;SDS011;7247;53.330;-1.180;2023-04-06T07:42:05;6.53;;;4.20;;
14326;SDS011;7247;53.330;-1.180;2023-04-06T07:44:32;5.97;;;4.17;;
14326;SDS011;7247;53.330;-1.180;2023-04-06T07:46:58;5.97;;;3.63;;
14326;SDS011;7247;53.330;-1.180;2023-04-06T07:49:25;5.77;;;3.50;;
14326;SDS011;7247;53.330;-1.180;2023-04-06T07:51:51;5.67;;;3.60;;
14326;SDS011;7247;53.330;-1.180;2023-04-06T07:54:18;6.83;;;3.33;;
14326;SDS011;7247;53.330;-1.180;2023-04-06T07:56:45;4.83;;;3.47;;
14326;SDS011;7247;53.330;-1.180;2023-04-06T07:59:12;3.17;;;2.60;;
14326;SDS011;7247;53.330;-1.180;2023-04-06T08:01:38;3.33;;;2.37;;
14326;SDS011;7247;53.330;-1.180;2023-04-06T08:04:05;5.57;;;2.57;;
14326;SDS011;7247;53.330;-1.180;2023-04-06T08:06:31;5.00;;;2.50;;
14326;SDS011;7247;53.330;-1.180;2023-04-06T08:08:58;4.30;;;2.23;;
14326;SDS011;7247;53.330;-1.180;2023-04-06T08:11:24;3.10;;;1.77;;
14326;SDS011;7247;53.330;-1.180;2023-04-06T08:13:53;2.53;;;1.60;;
14326;SDS011;7247;53.330;-1.180;2023-04-06T08:16:20;2.07;;;1.40;;
14326;SDS011;7247;53.330;-1.180;2023-04-06T08:18:47;5.10;;;1.70;;
14326;SDS011;7247;53.330;-1.180;2023-04-06T08:21:13;2.60;;;1.70;;
14326;SDS011;7247;53.330;-1.180;2023-04-06T08:23:39;3.30;;;1.57;;
14326;SDS011;7247;53.330;-1.180;2023-04-06T08:26:06;5.83;;;1.93;;
14326;SDS011;7247;53.330;-1.180;2023-04-06T08:28:32;4.87;;;2.10;;
14326;SDS011;7247;53.330;-1.180;2023-04-06T08:31:04;5.93;;;2.27;;
14326;SDS011;7247;53.330;-1.180;2023-04-06T08:33:31;3.93;;;1.90;;
14326;SDS011;7247;53.330;-1.180;2023-04-06T08:36:05;4.00;;;1.70;;
14326;SDS011;7247;53.330;-1.180;2023-04-06T08:38:32;5.73;;;2.00;;
14326;SDS011;7247;53.330;-1.180;2023-04-06T08:40:58;6.13;;;2.10;;
14326;SDS011;7247;53.330;-1.180;2023-04-06T08:43:25;4.67;;;1.70;;
14326;SDS011;7247;53.330;-1.180;2023-04-06T08:45:52;5.73;;;1.80;;
14326;SDS011;7247;53.330;-1.180;2023-04-06T08:48:20;5.70;;;2.10;;
14326;SDS011;7247;53.330;-1.180;2023-04-06T08:50:46;6.13;;;2.10;;
14326;SDS011;7247;53.330;-1.180;2023-04-06T08:53:13;4.77;;;1.90;;
14326;SDS011;7247;53.330;-1.180;2023-04-06T08:55:41;6.10;;;1.97;;
14326;SDS011;7247;53.330;-1.180;2023-04-06T08:58:08;8.00;;;2.20;;
14326;SDS011;7247;53.330;-1.180;2023-04-06T09:00:36;4.90;;;2.10;;
14326;SDS011;7247;53.330;-1.180;2023-04-06T09:03:03;4.23;;;2.00;;
14326;SDS011;7247;53.330;-1.180;2023-04-06T09:05:32;6.93;;;2.33;;
14326;SDS011;7247;53.330;-1.180;2023-04-06T09:07:59;5.03;;;2.30;;
14326;SDS011;7247;53.330;-1.180;2023-04-06T09:10:26;4.23;;;1.90;;
14326;SDS011;7247;53.330;-1.180;2023-04-06T09:13:02;5.20;;;2.00;;
14326;SDS011;7247;53.330;-1.180;2023-04-06T09:15:28;4.23;;;2.03;;
14326;SDS011;7247;53.330;-1.180;2023-04-06T09:17:55;4.43;;;1.80;;
14326;SDS011;7247;53.330;-1.180;2023-04-06T09:20:22;6.43;;;1.97;;
14326;SDS011;7247;53.330;-1.180;2023-04-06T09:22:51;5.07;;;1.80;;
14326;SDS011;7247;53.330;-1.180;2023-04-06T09:25:18;2.87;;;1.60;;
14326;SDS011;7247;53.330;-1.180;2023-04-06T09:27:46;5.53;;;2.07;;
14326;SDS011;7247;53.330;-1.180;2023-04-06T09:30:12;4.93;;;1.60;;
14326;SDS011;7247;53.330;-1.180;2023-04-06T09:32:44;3.57;;;1.33;;
14326;SDS011;7247;53.330;-1.180;2023-04-06T09:35:11;9.07;;;1.87;;
14326;SDS011;7247;53.330;-1.180;2023-04-06T09:37:38;4.63;;;1.60;;
14326;SDS011;7247;53.330;-1.180;2023-04-06T09:40:06;4.83;;;1.60;;
14326;SDS011;7247;53.330;-1.180;2023-04-06T09:42:33;6.83;;;2.20;;
14326;SDS011;7247;53.330;-1.180;2023-04-06T09:45:00;6.03;;;1.93;;
14326;SDS011;7247;53.330;-1.180;2023-04-06T09:47:26;8.10;;;1.90;;
14326;SDS011;7247;53.330;-1.180;2023-04-06T09:49:54;6.43;;;2.03;;
14326;SDS011;7247;53.330;-1.180;2023-04-06T09:52:21;4.13;;;2.00;;
14326;SDS011;7247;53.330;-1.180;2023-04-06T09:54:49;6.20;;;1.83;;
14326;SDS011;7247;53.330;-1.180;2023-04-06T09:57:20;7.70;;;2.03;;
14326;SDS011;7247;53.330;-1.180;2023-04-06T09:59:50;9.27;;;2.47;;
14326;SDS011;7247;53.330;-1.180;2023-04-06T10:02:20;6.80;;;2.00;;
14326;SDS011;7247;53.330;-1.180;2023-04-06T10:04:50;10.60;;;1.97;;
14326;SDS011;7247;53.330;-1.180;2023-04-06T10:07:19;7.13;;;2.10;;
14326;SDS011;7247;53.330;-1.180;2023-04-06T10:09:45;5.47;;;1.77;;
14326;SDS011;7247;53.330;-1.180;2023-04-06T10:12:12;5.03;;;1.60;;
14326;SDS011;7247;53.330;-1.180;2023-04-06T10:14:40;4.87;;;1.60;;
14326;SDS011;7247;53.330;-1.180;2023-04-06T10:17:07;7.63;;;2.03;;
14326;SDS011;7247;53.330;-1.180;2023-04-06T10:19:35;6.67;;;2.03;;
14326;SDS011;7247;53.330;-1.180;2023-04-06T10:22:03;8.87;;;2.33;;
14326;SDS011;7247;53.330;-1.180;2023-04-06T10:24:32;6.20;;;1.90;;
14326;SDS011;7247;53.330;-1.180;2023-04-06T10:26:58;5.63;;;1.67;;
14326;SDS011;7247;53.330;-1.180;2023-04-06T10:29:25;5.30;;;2.00;;
14326;SDS011;7247;53.330;-1.180;2023-04-06T10:31:53;6.13;;;1.90;;
14326;SDS011;7247;53.330;-1.180;2023-04-06T10:34:20;7.03;;;2.17;;
14326;SDS011;7247;53.330;-1.180;2023-04-06T10:36:46;5.13;;;1.20;;
14326;SDS011;7247;53.330;-1.180;2023-04-06T10:39:13;5.67;;;1.80;;
14326;SDS011;7247;53.330;-1.180;2023-04-06T10:41:41;5.37;;;1.40;;
14326;SDS011;7247;53.330;-1.180;2023-04-06T10:44:08;5.43;;;1.67;;
14326;SDS011;7247;53.330;-1.180;2023-04-06T10:46:34;5.47;;;1.67;;
14326;SDS011;7247;53.330;-1.180;2023-04-06T10:49:11;3.53;;;1.60;;
14326;SDS011;7247;53.330;-1.180;2023-04-06T10:51:38;4.27;;;1.40;;
14326;SDS011;7247;53.330;-1.180;2023-04-06T10:54:05;5.30;;;1.60;;
14326;SDS011;7247;53.330;-1.180;2023-04-06T10:56:31;6.30;;;1.60;;
14326;SDS011;7247;53.330;-1.180;2023-04-06T10:59:00;6.77;;;1.70;;
14326;SDS011;7247;53.330;-1.180;2023-04-06T11:01:26;5.20;;;1.80;;
14326;SDS011;7247;53.330;-1.180;2023-04-06T11:03:53;5.13;;;1.63;;
14326;SDS011;7247;53.330;-1.180;2023-04-06T11:06:22;7.57;;;1.77;;
14326;SDS011;7247;53.330;-1.180;2023-04-06T11:08:49;7.10;;;1.80;;
14326;SDS011;7247;53.330;-1.180;2023-04-06T11:11:17;5.13;;;1.83;;
14326;SDS011;7247;53.330;-1.180;2023-04-06T11:13:44;7.73;;;2.40;;
14326;SDS011;7247;53.330;-1.180;2023-04-06T11:16:14;7.50;;;2.40;;
14326;SDS011;7247;53.330;-1.180;2023-04-06T11:18:50;10.03;;;2.20;;
14326;SDS011;7247;53.330;-1.180;2023-04-06T11:21:17;8.43;;;2.23;;
14326;SDS011;7247;53.330;-1.180;2023-04-06T11:23:45;11.10;;;2.70;;
14326;SDS011;7247;53.330;-1.180;2023-04-06T11:26:11;7.40;;;1.70;;
14326;SDS011;7247;53.330;-1.180;2023-04-06T11:28:39;3.90;;;1.40;;
14326;SDS011;7247;53.330;-1.180;2023-04-06T11:31:05;6.63;;;1.50;;
14326;SDS011;7247;53.330;-1.180;2023-04-06T11:33:34;7.13;;;2.10;;
14326;SDS011;7247;53.330;-1.180;2023-04-06T11:36:01;4.17;;;1.60;;
14326;SDS011;7247;53.330;-1.180;2023-04-06T11:38:27;4.90;;;1.67;;
14326;SDS011;7247;53.330;-1.180;2023-04-06T11:40:55;6.17;;;1.50;;
14326;SDS011;7247;53.330;-1.180;2023-04-06T11:43:25;3.17;;;1.53;;
14326;SDS011;7247;53.330;-1.180;2023-04-06T11:45:52;4.97;;;1.67;;
14326;SDS011;7247;53.330;-1.180;2023-04-06T11:48:25;3.53;;;1.50;;
14326;SDS011;7247;53.330;-1.180;2023-04-06T11:50:55;5.43;;;1.80;;
14326;SDS011;7247;53.330;-1.180;2023-04-06T11:53:21;5.87;;;1.70;;
14326;SDS011;7247;53.330;-1.180;2023-04-06T11:55:48;6.17;;;1.77;;
14326;SDS011;7247;53.330;-1.180;2023-04-06T11:58:15;6.60;;;1.70;;
14326;SDS011;7247;53.330;-1.180;2023-04-06T12:00:43;4.87;;;1.80;;
14326;SDS011;7247;53.330;-1.180;2023-04-06T12:03:10;7.83;;;1.53;;
14326;SDS011;7247;53.330;-1.180;2023-04-06T12:05:36;4.43;;;1.77;;
14326;SDS011;7247;53.330;-1.180;2023-04-06T12:08:03;7.20;;;1.90;;
14326;SDS011;7247;53.330;-1.180;2023-04-06T12:10:29;5.57;;;1.80;;
14326;SDS011;7247;53.330;-1.180;2023-04-06T12:12:56;6.00;;;1.33;;
14326;SDS011;7247;53.330;-1.180;2023-04-06T12:15:24;4.47;;;1.67;;
14326;SDS011;7247;53.330;-1.180;2023-04-06T12:17:50;6.03;;;1.60;;
14326;SDS011;7247;53.330;-1.180;2023-04-06T12:20:16;4.53;;;1.60;;
14326;SDS011;7247;53.330;-1.180;2023-04-06T12:22:43;4.20;;;1.23;;
14326;SDS011;7247;53.330;-1.180;2023-04-06T12:25:10;7.50;;;1.40;;
14326;SDS011;7247;53.330;-1.180;2023-04-06T12:27:37;4.90;;;1.87;;
14326;SDS011;7247;53.330;-1.180;2023-04-06T12:30:04;5.67;;;1.70;;
14326;SDS011;7247;53.330;-1.180;2023-04-06T12:32:32;5.10;;;1.80;;
14326;SDS011;7247;53.330;-1.180;2023-04-06T12:34:58;3.43;;;1.47;;
14326;SDS011;7247;53.330;-1.180;2023-04-06T12:37:24;5.50;;;1.87;;
14326;SDS011;7247;53.330;-1.180;2023-04-06T12:39:52;5.03;;;1.67;;
14326;SDS011;7247;53.330;-1.180;2023-04-06T12:42:18;4.00;;;1.57;;
14326;SDS011;7247;53.330;-1.180;2023-04-06T12:44:45;4.90;;;1.27;;
14326;SDS011;7247;53.330;-1.180;2023-04-06T12:47:12;4.10;;;1.20;;
14326;SDS011;7247;53.330;-1.180;2023-04-06T12:49:40;7.47;;;1.40;;
14326;SDS011;7247;53.330;-1.180;2023-04-06T12:52:06;4.43;;;1.73;;
14326;SDS011;7247;53.330;-1.180;2023-04-06T12:54:32;4.87;;;1.40;;
14326;SDS011;7247;53.330;-1.180;2023-04-06T12:56:59;5.03;;;1.40;;
14326;SDS011;7247;53.330;-1.180;2023-04-06T12:59:26;4.87;;;1.47;;
14326;SDS011;7247;53.330;-1.180;2023-04-06T13:01:54;5.67;;;1.70;;
14326;SDS011;7247;53.330;-1.180;2023-04-06T13:04:22;4.97;;;1.50;;
14326;SDS011;7247;53.330;-1.180;2023-04-06T13:06:50;6.13;;;1.60;;
14326;SDS011;7247;53.330;-1.180;2023-04-06T13:09:17;3.40;;;1.30;;
14326;SDS011;7247;53.330;-1.180;2023-04-06T13:11:43;5.87;;;1.40;;
14326;SDS011;7247;53.330;-1.180;2023-04-06T13:14:10;4.97;;;1.73;;
14326;SDS011;7247;53.330;-1.180;2023-04-06T13:16:37;5.77;;;1.40;;
14326;SDS011;7247;53.330;-1.180;2023-04-06T13:19:03;5.30;;;1.60;;
14326;SDS011;7247;53.330;-1.180;2023-04-06T13:21:30;6.83;;;1.60;;
14326;SDS011;7247;53.330;-1.180;2023-04-06T13:23:58;6.93;;;1.57;;
14326;SDS011;7247;53.330;-1.180;2023-04-06T13:26:25;3.67;;;1.30;;
14326;SDS011;7247;53.330;-1.180;2023-04-06T13:28:51;5.03;;;1.80;;
14326;SDS011;7247;53.330;-1.180;2023-04-06T13:31:17;4.37;;;1.30;;
14326;SDS011;7247;53.330;-1.180;2023-04-06T13:33:44;5.57;;;1.57;;
14326;SDS011;7247;53.330;-1.180;2023-04-06T13:36:10;3.03;;;1.30;;
14326;SDS011;7247;53.330;-1.180;2023-04-06T13:38:37;4.20;;;1.40;;
14326;SDS011;7247;53.330;-1.180;2023-04-06T13:41:06;3.50;;;1.10;;
14326;SDS011;7247;53.330;-1.180;2023-04-06T13:43:32;2.43;;;1.20;;
14326;SDS011;7247;53.330;-1.180;2023-04-06T13:45:59;3.53;;;1.23;;
14326;SDS011;7247;53.330;-1.180;2023-04-06T13:48:26;5.70;;;1.47;;
14326;SDS011;7247;53.330;-1.180;2023-04-06T13:50:52;4.80;;;1.17;;
14326;SDS011;7247;53.330;-1.180;2023-04-06T13:53:19;3.27;;;1.40;;
14326;SDS011;7247;53.330;-1.180;2023-04-06T13:55:51;2.53;;;1.30;;
14326;SDS011;7247;53.330;-1.180;2023-04-06T13:58:19;4.23;;;1.30;;
14326;SDS011;7247;53.330;-1.180;2023-04-06T14:00:46;4.93;;;1.17;;
14326;SDS011;7247;53.330;-1.180;2023-04-06T14:03:12;4.37;;;1.47;;
14326;SDS011;7247;53.330;-1.180;2023-04-06T14:05:38;3.20;;;1.33;;
14326;SDS011;7247;53.330;-1.180;2023-04-06T14:08:05;4.47;;;1.53;;
14326;SDS011;7247;53.330;-1.180;2023-04-06T14:10:36;4.80;;;1.27;;
14326;SDS011;7247;53.330;-1.180;2023-04-06T14:13:02;4.37;;;1.10;;
14326;SDS011;7247;53.330;-1.180;2023-04-06T14:15:30;2.80;;;1.17;;
14326;SDS011;7247;53.330;-1.180;2023-04-06T14:17:56;4.47;;;1.30;;
14326;SDS011;7247;53.330;-1.180;2023-04-06T14:20:23;2.77;;;1.03;;
14326;SDS011;7247;53.330;-1.180;2023-04-06T14:22:49;3.33;;;1.20;;
14326;SDS011;7247;53.330;-1.180;2023-04-06T14:25:17;3.80;;;1.20;;
14326;SDS011;7247;53.330;-1.180;2023-04-06T14:27:44;3.23;;;1.37;;
14326;SDS011;7247;53.330;-1.180;2023-04-06T14:30:11;4.73;;;1.77;;
14326;SDS011;7247;53.330;-1.180;2023-04-06T14:32:40;3.27;;;1.00;;
14326;SDS011;7247;53.330;-1.180;2023-04-06T14:35:07;4.27;;;1.30;;